createdAt,value
2022-08-08T00:01:12.422Z,59.53
2022-08-08T00:03:50.930Z,59.54
2022-08-08T00:06:34.981Z,59.53
2022-08-08T00:09:07.805Z,59.76
2022-08-08T00:11:47.184Z,60.12
2022-08-08T00:14:56.995Z,60.05
2022-08-08T00:17:58.417Z,60.20
2022-08-08T00:20:37.331Z,60.09
2022-08-08T00:23:11.143Z,60.22
2022-08-08T00:25:50.798Z,60.40
2022-08-08T00:28:34.062Z,60.33
2022-08-08T00:32:16.140Z,60.70
2022-08-08T00:34:45.178Z,60.58
2022-08-08T00:37:47.167Z,60.60
2022-08-08T00:41:11.327Z,60.21
2022-08-08T00:44:15.393Z,60.44
2022-08-08T00:48:05.000Z,60.44
2022-08-08T00:51:10.295Z,60.73
2022-08-08T00:54:15.692Z,61.13
2022-08-08T00:57:19.680Z,60.85
2022-08-08T01:00:16.254Z,60.94
2022-08-08T01:04:01.601Z,61.00
2022-08-08T01:07:23.715Z,60.96
2022-08-08T01:10:30.888Z,61.33
2022-08-08T01:13:38.090Z,61.12
2022-08-08T01:16:46.222Z,61.41
2022-08-08T01:20:02.689Z,61.19
2022-08-08T01:23:03.400Z,61.61
2022-08-08T01:26:21.123Z,61.44
2022-08-08T01:29:35.172Z,61.59
2022-08-08T01:32:44.843Z,61.62
2022-08-08T01:36:10.692Z,61.62
2022-08-08T01:39:24.131Z,61.93
2022-08-08T01:42:08.077Z,62.27
2022-08-08T01:44:54.963Z,62.12
2022-08-08T01:48:23.691Z,62.49
2022-08-08T01:52:41.203Z,62.47
2022-08-08T01:55:46.328Z,62.76
2022-08-08T01:58:11.079Z,62.86
2022-08-08T02:00:41.475Z,62.87
2022-08-08T02:03:57.375Z,62.60
2022-08-08T02:07:05.947Z,63.10
2022-08-08T02:10:11.529Z,62.98
2022-08-08T02:12:51.351Z,63.30
2022-08-08T02:15:34.595Z,63.48
2022-08-08T02:18:12.604Z,63.35
2022-08-08T02:21:23.005Z,63.44
2022-08-08T02:24:08.041Z,63.46
2022-08-08T02:26:47.771Z,63.67
2022-08-08T02:29:52.576Z,63.90
2022-08-08T02:33:10.575Z,63.79
2022-08-08T02:36:05.860Z,64.17
2022-08-08T02:39:40.718Z,64.00
2022-08-08T02:44:38.506Z,63.84
2022-08-08T02:46:34.925Z,64.33
2022-08-08T02:50:17.582Z,63.99
2022-08-08T02:53:11.936Z,64.46
2022-08-08T02:56:25.869Z,64.24
2022-08-08T02:59:56.983Z,63.95
2022-08-08T03:03:00.557Z,64.21
2022-08-08T03:06:11.877Z,64.16
2022-08-08T03:16:00.664Z,64.30
2022-08-08T03:17:08.875Z,64.65
2022-08-08T03:20:17.749Z,64.47
2022-08-08T03:22:56.996Z,64.54
2022-08-08T03:25:36.010Z,64.95
2022-08-08T03:28:45.897Z,64.72
2022-08-08T03:32:06.009Z,64.85
2022-08-08T03:38:55.718Z,64.85
2022-08-08T03:42:27.229Z,64.96
2022-08-08T03:49:09.120Z,65.19
2022-08-08T03:54:41.329Z,65.42
2022-08-08T03:58:33.245Z,65.30
2022-08-08T04:00:34.176Z,65.65
2022-08-08T04:03:59.210Z,65.37
2022-08-08T04:06:29.905Z,65.71
2022-08-08T04:09:27.072Z,65.50
2022-08-08T04:11:59.190Z,65.77
2022-08-08T04:14:55.090Z,65.91
2022-08-08T04:17:58.253Z,65.88
2022-08-08T04:21:12.513Z,65.86
2022-08-08T04:30:17.746Z,65.82
2022-08-08T04:32:56.814Z,65.70
2022-08-08T04:35:52.472Z,65.74
2022-08-08T04:38:24.877Z,65.59
2022-08-08T04:40:58.712Z,65.48
2022-08-08T04:43:45.285Z,65.91
2022-08-08T04:47:06.997Z,65.58
2022-08-08T04:50:01.029Z,65.72
2022-08-08T04:52:42.931Z,65.86
2022-08-08T04:55:19.794Z,65.87
2022-08-08T04:57:59.137Z,64.08
2022-08-08T05:00:29.321Z,61.27
2022-08-08T05:02:57.501Z,58.92
2022-08-08T05:05:44.642Z,56.81
2022-08-08T05:08:16.012Z,54.85
2022-08-08T05:10:48.235Z,53.49
2022-08-08T05:13:17.740Z,52.40
2022-08-08T05:16:51.673Z,51.50
2022-08-08T05:18:36.666Z,50.08
2022-08-08T05:21:43.705Z,49.69
2022-08-08T05:24:55.872Z,48.63
2022-08-08T05:27:26.613Z,45.88
2022-08-08T05:30:47.463Z,45.03
2022-08-08T05:33:17.900Z,43.51
2022-08-08T05:35:58.885Z,42.25
2022-08-08T05:38:47.898Z,41.24
2022-08-08T05:41:24.476Z,40.62
2022-08-08T05:44:18.368Z,40.04
2022-08-08T05:47:21.142Z,39.22
2022-08-08T05:50:05.244Z,38.50
2022-08-08T05:52:48.803Z,38.00
2022-08-08T05:59:58.681Z,35.55
2022-08-08T06:11:52.888Z,31.55
2022-08-08T06:14:27.080Z,30.61
2022-08-08T06:17:00.925Z,31.56
2022-08-08T06:19:49.303Z,31.49
2022-08-08T06:22:37.522Z,31.67
2022-08-08T06:31:22.729Z,27.57
2022-08-08T06:34:25.938Z,26.44
2022-08-08T06:37:00.778Z,26.48
2022-08-08T06:39:56.214Z,26.32
2022-08-08T06:42:29.487Z,24.70
2022-08-08T06:45:01.127Z,24.10
2022-08-08T06:47:36.627Z,23.59
2022-08-08T06:50:31.401Z,22.35
2022-08-08T06:53:13.907Z,21.86
2022-08-08T06:56:00.483Z,20.97
2022-08-08T06:58:33.618Z,20.55
2022-08-08T07:01:52.298Z,21.39
2022-08-08T07:04:36.881Z,21.83
2022-08-08T07:06:55.716Z,22.90
2022-08-08T07:09:45.508Z,23.28
2022-08-08T07:12:32.032Z,23.32
2022-08-08T07:15:11.491Z,22.77
2022-08-08T07:18:01.620Z,21.39
2022-08-08T07:20:45.935Z,20.82
2022-08-08T07:23:25.228Z,19.71
2022-08-08T07:26:00.344Z,18.66
2022-08-08T07:28:31.703Z,18.14
2022-08-08T07:31:06.383Z,17.70
2022-08-08T07:33:53.306Z,16.87
2022-08-08T07:36:30.398Z,16.40
2022-08-08T07:39:01.563Z,16.19
2022-08-08T07:41:58.531Z,15.49
2022-08-08T07:44:40.677Z,14.92
2022-08-08T07:47:12.505Z,14.25
2022-08-08T07:49:46.159Z,14.12
2022-08-08T07:52:26.802Z,13.23
2022-08-08T07:55:03.809Z,13.84
2022-08-08T07:57:48.162Z,13.74
2022-08-08T08:00:18.944Z,12.84
2022-08-08T08:03:05.280Z,12.52
2022-08-08T08:05:39.939Z,11.75
2022-08-08T08:08:18.914Z,11.36
2022-08-08T08:10:52.363Z,11.06
2022-08-08T08:13:42.992Z,11.17
2022-08-08T08:16:20.242Z,10.97
2022-08-08T08:18:57.301Z,9.89
2022-08-08T08:21:44.059Z,9.85
2022-08-08T08:24:32.161Z,10.06
2022-08-08T08:27:03.970Z,10.00
2022-08-08T08:29:35.573Z,10.07
2022-08-08T08:32:05.596Z,10.14
2022-08-08T08:34:36.958Z,9.92
2022-08-08T08:37:11.956Z,9.64
2022-08-08T08:40:00.315Z,9.04
2022-08-08T08:42:36.265Z,9.05
2022-08-08T08:45:21.348Z,8.36
2022-08-08T08:47:54.493Z,8.25
2022-08-08T08:50:32.515Z,8.33
2022-08-08T08:53:27.153Z,8.17
2022-08-08T08:56:03.216Z,8.07
2022-08-08T08:58:39.731Z,8.04
2022-08-08T09:01:13.466Z,8.04
2022-08-08T09:03:50.401Z,8.10
2022-08-08T09:06:33.985Z,7.71
2022-08-08T09:09:07.116Z,8.11
2022-08-08T09:11:47.587Z,7.97
2022-08-08T09:14:24.019Z,8.08
2022-08-08T09:16:57.063Z,7.52
2022-08-08T09:21:58.977Z,7.02
2022-08-08T09:22:26.016Z,7.57
2022-08-08T09:24:58.476Z,7.14
2022-08-08T09:27:42.065Z,6.87
2022-08-08T09:30:22.062Z,6.46
2022-08-08T09:33:12.247Z,6.56
2022-08-08T09:35:49.920Z,6.62
2022-08-08T09:38:53.355Z,6.13
2022-08-08T09:42:14.305Z,6.21
2022-08-08T09:44:34.300Z,6.32
2022-08-08T09:47:25.923Z,7.03
2022-08-08T09:50:03.419Z,6.26
2022-08-08T09:52:54.065Z,6.54
2022-08-08T09:56:02.787Z,5.86
2022-08-08T09:58:26.304Z,5.72
2022-08-08T10:01:14.257Z,6.17
2022-08-08T10:03:43.546Z,5.91
2022-08-08T10:06:16.252Z,5.74
2022-08-08T10:08:46.668Z,5.83
2022-08-08T10:12:27.445Z,5.88
2022-08-08T10:14:07.314Z,5.90
2022-08-08T10:16:56.815Z,6.01
2022-08-08T10:19:45.778Z,5.95
2022-08-08T10:22:19.572Z,5.79
2022-08-08T10:24:49.730Z,6.09
2022-08-08T10:27:24.986Z,4.94
2022-08-08T10:30:00.013Z,5.36
2022-08-08T10:32:35.816Z,5.58
2022-08-08T10:35:11.582Z,4.65
2022-08-08T10:37:53.712Z,5.07
2022-08-08T10:40:23.074Z,5.04
2022-08-08T10:43:00.507Z,5.16
2022-08-08T10:45:29.649Z,5.07
2022-08-08T10:48:12.801Z,5.32
2022-08-08T10:50:42.541Z,5.85
2022-08-08T10:53:13.111Z,5.14
2022-08-08T10:55:46.785Z,4.72
2022-08-08T10:58:15.611Z,5.02
2022-08-08T11:00:53.052Z,5.25
2022-08-08T11:04:01.525Z,5.61
2022-08-08T11:06:34.500Z,5.57
2022-08-08T11:09:14.946Z,5.39
2022-08-08T11:12:05.023Z,5.31
2022-08-08T11:14:33.541Z,5.63
2022-08-08T11:17:04.987Z,4.79
2022-08-08T11:19:36.551Z,5.65
2022-08-08T11:22:05.682Z,6.21
2022-08-08T11:24:36.854Z,6.43
2022-08-08T11:27:10.751Z,6.53
2022-08-08T11:29:58.179Z,6.45
2022-08-08T11:32:40.184Z,6.59
2022-08-08T11:35:24.921Z,7.33
2022-08-08T11:38:39.211Z,8.49
2022-08-08T11:40:52.459Z,9.37
2022-08-08T11:43:24.577Z,11.62
2022-08-08T11:46:09.949Z,12.07
2022-08-08T11:48:44.888Z,13.60
2022-08-08T11:51:30.327Z,14.80
2022-08-08T11:54:27.212Z,14.68
2022-08-08T11:56:56.051Z,16.37
2022-08-08T11:59:58.525Z,16.21
2022-08-08T12:02:32.395Z,16.53
2022-08-08T12:05:06.762Z,16.57
2022-08-08T12:08:12.610Z,17.36
2022-08-08T12:22:20.605Z,19.60
2022-08-08T12:28:57.773Z,20.12
2022-08-08T12:31:53.909Z,20.18
2022-08-08T12:34:48.747Z,20.71
2022-08-08T12:37:22.819Z,21.36
2022-08-08T12:40:13.322Z,22.22
2022-08-08T12:42:58.081Z,21.99
2022-08-08T12:45:58.017Z,21.67
2022-08-08T12:48:38.790Z,21.38
2022-08-08T12:51:39.807Z,21.47
2022-08-08T12:54:29.437Z,22.24
2022-08-08T12:57:49.671Z,22.13
2022-08-08T13:00:56.735Z,21.94
2022-08-08T13:03:53.217Z,21.75
2022-08-08T13:07:01.069Z,21.25
2022-08-08T13:10:05.014Z,21.34
2022-08-08T13:19:01.688Z,22.29
2022-08-08T13:22:24.428Z,21.82
2022-08-08T13:28:42.452Z,22.69
2022-08-08T13:31:46.678Z,22.79
2022-08-08T13:38:05.626Z,22.88
2022-08-08T13:40:33.921Z,25.49
2022-08-08T13:46:27.443Z,23.50
2022-08-08T13:49:11.981Z,23.00
2022-08-08T13:52:07.750Z,22.59
2022-08-08T13:58:07.138Z,23.67
2022-08-08T14:00:33.315Z,23.83
2022-08-08T14:03:52.650Z,23.91
2022-08-08T14:06:37.759Z,24.08
2022-08-08T14:10:02.243Z,24.09
2022-08-08T14:12:58.187Z,24.52
2022-08-08T14:15:46.507Z,24.14
2022-08-08T14:18:51.968Z,23.55
2022-08-08T14:21:52.035Z,23.96
2022-08-08T14:24:31.607Z,23.67
2022-08-08T14:27:01.599Z,23.16
2022-08-08T14:29:48.225Z,24.46
2022-08-08T14:32:32.194Z,25.09
2022-08-08T14:35:24.373Z,24.41
2022-08-08T14:38:34.533Z,24.49
2022-08-08T14:41:53.246Z,24.46
2022-08-08T14:44:22.102Z,24.82
2022-08-08T14:47:21.191Z,24.08
2022-08-08T14:50:39.396Z,25.78
2022-08-08T14:53:27.337Z,24.88
2022-08-08T14:56:38.277Z,24.66
2022-08-08T14:59:31.419Z,25.67
2022-08-08T15:02:20.035Z,25.41
2022-08-08T15:05:15.830Z,25.17
2022-08-08T15:07:53.676Z,25.60
2022-08-08T15:10:35.992Z,25.46
2022-08-08T15:13:08.415Z,25.45
2022-08-08T15:16:02.489Z,27.30
2022-08-08T15:18:34.696Z,26.24
2022-08-08T15:21:07.822Z,26.93
2022-08-08T15:23:40.317Z,27.08
2022-08-08T15:26:14.007Z,27.06
2022-08-08T15:28:56.131Z,27.48
2022-08-08T15:32:19.012Z,26.63
2022-08-08T15:34:56.350Z,27.00
2022-08-08T15:37:38.092Z,26.25
2022-08-08T15:40:15.516Z,26.64
2022-08-08T15:42:51.354Z,27.74
2022-08-08T15:45:29.902Z,27.72
2022-08-08T15:48:15.445Z,27.31
2022-08-08T15:51:03.182Z,26.87
2022-08-08T15:53:50.004Z,27.22
2022-08-08T15:56:23.484Z,27.35
2022-08-08T15:58:56.786Z,26.96
2022-08-08T16:01:40.835Z,27.36
2022-08-08T16:04:21.434Z,27.62
2022-08-08T16:07:04.523Z,27.35
2022-08-08T16:13:03.451Z,28.95
2022-08-08T16:13:14.269Z,27.73
2022-08-08T16:15:21.964Z,27.21
2022-08-08T16:18:05.941Z,27.64
2022-08-08T16:20:42.242Z,27.65
2022-08-08T16:23:16.087Z,28.31
2022-08-08T16:25:54.550Z,27.29
2022-08-08T16:28:36.313Z,27.57
2022-08-08T16:31:07.643Z,27.10
2022-08-08T16:33:38.710Z,27.95
2022-08-08T16:36:09.863Z,27.39
2022-08-08T16:38:47.553Z,27.53
2022-08-08T16:41:22.864Z,27.77
2022-08-08T16:43:52.356Z,27.09
2022-08-08T16:46:39.081Z,27.46
2022-08-08T16:49:09.688Z,26.94
2022-08-08T16:55:14.001Z,27.53
2022-08-08T16:55:22.688Z,27.44
2022-08-08T16:57:43.586Z,27.91
2022-08-08T17:00:08.874Z,28.48
2022-08-08T17:02:39.547Z,27.61
2022-08-08T17:05:10.065Z,27.69
2022-08-08T17:07:40.255Z,27.83
2022-08-08T17:10:11.593Z,27.84
2022-08-08T17:12:47.038Z,27.88
2022-08-08T17:15:23.171Z,28.15
2022-08-08T17:18:03.032Z,27.41
2022-08-08T17:20:33.000Z,28.18
2022-08-08T17:23:18.262Z,27.63
2022-08-08T17:25:58.104Z,27.67
2022-08-08T17:28:35.224Z,28.03
2022-08-08T17:31:15.110Z,27.48
2022-08-08T17:34:53.385Z,28.01
2022-08-08T17:36:44.185Z,28.60
2022-08-08T17:40:05.136Z,28.25
2022-08-08T17:42:18.490Z,29.16
2022-08-08T17:44:49.051Z,29.79
2022-08-08T17:47:37.750Z,29.19
2022-08-08T17:50:10.641Z,29.82
2022-08-08T17:52:43.162Z,30.04
2022-08-08T17:56:05.224Z,29.14
2022-08-08T17:58:02.516Z,29.84
2022-08-08T18:00:31.777Z,30.31
2022-08-08T18:03:09.079Z,29.70
2022-08-08T18:05:44.298Z,30.51
2022-08-08T18:08:24.888Z,30.81
2022-08-08T18:11:15.093Z,30.88
2022-08-08T18:13:46.940Z,32.71
2022-08-08T18:16:20.568Z,33.51
2022-08-08T18:18:53.634Z,32.84
2022-08-08T18:21:25.032Z,32.53
2022-08-08T18:24:18.969Z,34.34
2022-08-08T18:26:53.745Z,32.50
2022-08-08T18:29:33.354Z,32.60
2022-08-08T18:32:04.225Z,34.64
2022-08-08T18:34:33.918Z,34.36
2022-08-08T18:37:08.182Z,35.22
2022-08-08T18:39:42.590Z,35.03
2022-08-08T18:42:15.779Z,35.94
2022-08-08T18:44:55.178Z,36.09
2022-08-08T18:47:24.894Z,37.55
2022-08-08T18:50:00.474Z,36.80
2022-08-08T18:52:33.805Z,37.70
2022-08-08T18:55:10.236Z,37.87
2022-08-08T18:57:45.157Z,38.49
2022-08-08T19:00:20.203Z,38.60
2022-08-08T19:02:56.593Z,39.15
2022-08-08T19:05:31.819Z,39.96
2022-08-08T19:08:24.803Z,40.04
2022-08-08T19:10:58.900Z,40.59
2022-08-08T19:13:53.251Z,40.38
2022-08-08T19:16:19.258Z,41.16
2022-08-08T19:18:54.525Z,41.94
2022-08-08T19:21:30.747Z,41.54
2022-08-08T19:24:05.482Z,42.73
2022-08-08T19:26:35.369Z,42.69
2022-08-08T19:29:04.539Z,42.82
2022-08-08T19:31:36.872Z,42.90
2022-08-08T19:34:29.934Z,43.22
2022-08-08T19:36:58.650Z,44.27
2022-08-08T19:39:35.760Z,44.65
2022-08-08T19:42:06.851Z,44.94
2022-08-08T19:44:45.719Z,45.22
2022-08-08T19:47:26.929Z,45.16
2022-08-08T19:50:02.581Z,45.33
2022-08-08T19:52:39.399Z,45.96
2022-08-08T19:55:34.087Z,46.37
2022-08-08T19:58:02.324Z,46.44
2022-08-08T20:00:34.388Z,46.81
2022-08-08T20:03:14.879Z,46.90
2022-08-08T20:06:14.475Z,47.15
2022-08-08T20:08:47.635Z,47.48
2022-08-08T20:11:18.562Z,47.88
2022-08-08T20:14:32.961Z,48.07
2022-08-08T20:16:40.824Z,48.75
2022-08-08T20:19:10.603Z,48.70
2022-08-08T20:21:40.060Z,48.99
2022-08-08T20:24:08.783Z,49.27
2022-08-08T20:26:41.802Z,49.54
2022-08-08T20:29:18.081Z,49.46
2022-08-08T20:32:06.913Z,49.78
2022-08-08T20:34:36.082Z,50.41
2022-08-08T20:37:07.215Z,50.36
2022-08-08T20:39:41.438Z,50.86
2022-08-08T20:42:28.620Z,51.31
2022-08-08T20:44:58.719Z,51.10
2022-08-08T20:47:36.059Z,51.57
2022-08-08T20:50:09.932Z,51.33
2022-08-08T20:52:40.126Z,51.55
2022-08-08T20:55:26.305Z,52.34
2022-08-08T20:57:57.829Z,52.12
2022-08-08T21:00:41.250Z,52.63
2022-08-08T21:03:24.670Z,52.85
2022-08-08T21:10:12.697Z,52.30
2022-08-08T21:16:04.645Z,53.16
2022-08-08T21:18:29.521Z,53.71
2022-08-08T21:24:01.999Z,53.90
2022-08-08T21:43:48.476Z,55.45
2022-08-08T21:54:31.737Z,55.69
2022-08-08T21:55:01.847Z,55.99
2022-08-08T21:58:04.081Z,55.77
2022-08-08T22:00:46.829Z,56.13
2022-08-08T22:03:20.450Z,56.33
2022-08-08T22:08:41.925Z,56.67
2022-08-08T22:11:51.134Z,56.82
2022-08-08T22:13:58.825Z,57.15
2022-08-08T22:16:28.768Z,56.99
2022-08-08T22:18:58.667Z,57.23
2022-08-08T22:21:34.660Z,57.27
2022-08-08T22:24:02.833Z,57.21
2022-08-08T22:26:32.765Z,57.75
2022-08-08T22:29:13.254Z,57.81
2022-08-08T22:32:01.707Z,57.89
2022-08-08T22:34:33.261Z,58.08
2022-08-08T22:37:14.734Z,57.95
2022-08-08T22:39:51.334Z,58.26
2022-08-08T22:42:31.990Z,58.39
2022-08-08T22:45:02.597Z,58.68
2022-08-08T22:47:38.369Z,58.70
2022-08-08T22:50:26.556Z,58.57
2022-08-08T22:54:27.390Z,58.79
2022-08-08T22:55:58.292Z,58.80
2022-08-08T22:58:31.829Z,59.15
2022-08-08T23:01:01.596Z,59.19
2022-08-08T23:03:54.272Z,59.13
2022-08-08T23:06:24.643Z,59.60
2022-08-08T23:08:58.272Z,59.71
2022-08-08T23:11:30.809Z,59.73
2022-08-08T23:14:21.865Z,60.29
2022-08-08T23:16:59.092Z,60.02
2022-08-08T23:19:30.713Z,60.18
2022-08-08T23:22:08.254Z,60.12
2022-08-08T23:24:41.156Z,60.25
2022-08-08T23:27:37.506Z,60.39
2022-08-08T23:30:00.752Z,60.29
2022-08-08T23:32:30.039Z,60.67
2022-08-08T23:34:59.274Z,60.44
2022-08-08T23:38:00.879Z,60.47
2022-08-08T23:40:36.165Z,60.85
2022-08-08T23:43:04.427Z,60.99
2022-08-08T23:49:02.533Z,61.21
2022-08-08T23:49:04.614Z,60.99
2022-08-08T23:54:42.970Z,61.24
2022-08-08T23:57:04.732Z,61.55
